Terminal Aerodrome Forecast
Issued by NWS Newport/Morehead City, NC

Home | Current Version | Previous Version | Text Only | Print | Product List | Glossary On
Versions: 1 2 3 4 5 6 7 8 9 10 11 12 13 14 15 16 17 18 19 20 21 22 23
000
FTUS42 KMHX 301259 AAB
TAFEWN
TAF AMD
KEWN 301259Z 3013/3112 17007KT P6SM SCT050
      TEMPO 3013/3014 OVC008
     FM310300 18003KT P6SM SCT040 SCT250
     FM310900 00000KT 3SM BR SCT008=

USA.gov is the U.S. government's official web portal to all federal, state and local government web resources and services.